Time;durP1;ratioP1;P1;durP2;ratioP2;P2;SDS_P1;SDS_P2;PMS_P1;PMS_P2;Temp;Humidity;BMP_temperature;BMP_pressure;BME280_temperature;BME280_humidity;BME280_pressure;Samples;Min_cycle;Max_cycle;Signal;HPM_P1;HPM_P2
2022/04/19 00:03:02;;;;;;;7.70;2.80;;;;;;;6.93;47.02;100387.05;3488476;83;98363;-80
2022/04/19 00:08:04;;;;;;;7.63;3.07;;;;;;;6.84;46.90;100385.06;3495300;83;98812;-79
2022/04/19 00:13:07;;;;;;;7.53;2.37;;;;;;;6.78;47.17;100375.53;3510031;83;98516;-80
2022/04/19 00:18:09;;;;;;;8.58;2.83;;;;;;;6.73;47.29;100376.59;3495479;83;98889;-80
2022/04/19 00:23:15;;;;;;;6.60;2.70;;;;;;;6.72;47.60;100370.11;3473457;83;98493;-80
2022/04/19 00:28:16;;;;;;;5.80;2.23;;;;;;;6.65;47.63;100368.56;3494574;83;98249;-80
2022/04/19 00:33:17;;;;;;;7.30;2.70;;;;;;;6.59;48.07;100356.27;3501510;83;98274;-80
2022/04/19 00:38:18;;;;;;;9.03;3.13;;;;;;;6.52;48.24;100352.00;3496806;83;98374;-80
2022/04/19 00:43:19;;;;;;;8.77;3.13;;;;;;;6.43;48.37;100363.70;3504438;83;98394;-80
2022/04/19 00:48:21;;;;;;;9.43;2.93;;;;;;;6.34;48.47;100344.70;3494783;83;98531;-80
2022/04/19 00:53:25;;;;;;;5.83;2.50;;;;;;;6.33;49.13;100336.87;3501423;83;98443;-80
2022/04/19 00:58:26;;;;;;;8.03;2.77;;;;;;;6.26;48.93;100336.09;3465584;83;98356;-80
2022/04/19 01:03:27;;;;;;;11.57;2.90;;;;;;;6.24;49.19;100329.39;3492795;83;98266;-80
2022/04/19 01:08:30;;;;;;;6.67;2.77;;;;;;;6.17;49.40;100329.22;3468856;83;98572;-79
2022/04/19 01:13:31;;;;;;;6.92;2.60;;;;;;;6.12;49.61;100327.52;3483072;83;98398;-79
2022/04/19 01:18:32;;;;;;;7.23;2.67;;;;;;;6.06;49.52;100326.17;3479101;83;98434;-80
2022/04/19 01:23:34;;;;;;;8.43;3.10;;;;;;;6.01;49.94;100322.33;3484626;83;98583;-79
2022/04/19 01:28:35;;;;;;;8.33;2.30;;;;;;;5.96;50.09;100321.25;3484334;83;98421;-80
2022/04/19 01:33:36;;;;;;;8.53;3.00;;;;;;;5.90;50.37;100315.01;3485444;83;98278;-79
2022/04/19 01:38:37;;;;;;;7.60;3.20;;;;;;;5.84;50.64;100318.55;3457846;83;98348;-80
2022/04/19 01:43:38;;;;;;;8.00;2.80;;;;;;;5.74;50.88;100310.81;3486358;83;98439;-79
2022/04/19 01:48:38;;;;;;;8.10;3.30;;;;;;;5.69;51.07;100300.72;3488059;83;98897;-80
2022/04/19 01:53:40;;;;;;;6.23;2.50;;;;;;;5.65;51.38;100302.55;3496278;83;98509;-79
2022/04/19 01:58:41;;;;;;;9.90;3.90;;;;;;;5.56;51.44;100310.89;3477981;83;98312;-80
2022/04/19 02:03:42;;;;;;;8.60;2.90;;;;;;;5.48;51.72;100299.55;3496570;83;98080;-80
2022/04/19 02:08:43;;;;;;;8.33;2.90;;;;;;;5.42;52.20;100311.86;3482191;83;98363;-80
2022/04/19 02:13:44;;;;;;;6.70;2.50;;;;;;;5.36;52.46;100305.02;3496864;83;98533;-80
2022/04/19 02:18:45;;;;;;;7.57;3.23;;;;;;;5.30;52.47;100298.22;3491981;83;98542;-79
2022/04/19 02:23:46;;;;;;;8.57;2.67;;;;;;;5.26;52.63;100293.80;3495805;83;98553;-80
2022/04/19 02:28:47;;;;;;;9.90;3.17;;;;;;;5.19;52.90;100287.55;3491411;83;97911;-80
2022/04/19 02:33:49;;;;;;;7.53;3.10;;;;;;;5.09;53.09;100283.16;3466699;83;97431;-80
2022/04/19 02:38:50;;;;;;;9.20;2.93;;;;;;;4.99;53.33;100268.63;3490675;83;98324;-79
2022/04/19 02:43:50;;;;;;;6.97;2.57;;;;;;;4.87;53.57;100261.28;3496138;83;98454;-80
2022/04/19 02:48:51;;;;;;;7.77;3.67;;;;;;;4.80;53.97;100265.71;3489535;83;98454;-80
2022/04/19 02:53:53;;;;;;;7.60;3.00;;;;;;;4.70;54.18;100257.41;3496393;83;98512;-78
2022/04/19 02:58:54;;;;;;;10.63;3.20;;;;;;;4.58;54.47;100254.69;3485888;83;98409;-80
2022/04/19 03:03:55;;;;;;;6.93;2.83;;;;;;;4.46;54.82;100263.42;3508436;83;34914;-79
2022/04/19 03:08:56;;;;;;;10.30;3.47;;;;;;;4.32;55.30;100258.31;3486333;83;98322;-80
2022/04/19 03:13:57;;;;;;;8.67;3.30;;;;;;;4.19;55.69;100254.55;3482004;83;98738;-80
2022/04/19 03:18:58;;;;;;;10.43;3.67;;;;;;;4.07;56.17;100250.45;3483196;83;98463;-80
2022/04/19 03:29:19;;;;;;;8.78;3.40;;;;;;;3.96;57.08;100242.48;3485002;83;97676;-80
2022/04/19 03:34:20;;;;;;;8.33;3.53;;;;;;;3.95;57.31;100248.52;3478340;83;98620;-79
2022/04/19 03:39:21;;;;;;;8.17;3.63;;;;;;;3.94;57.62;100240.09;3485496;83;98600;-80
2022/04/19 03:44:22;;;;;;;9.20;3.67;;;;;;;3.94;57.84;100234.66;3480351;83;98552;-80
2022/04/19 03:49:26;;;;;;;9.67;4.00;;;;;;;3.95;58.04;100230.02;3486502;82;98487;-80
2022/04/19 03:54:27;;;;;;;8.00;3.27;;;;;;;3.96;58.08;100223.44;3481319;83;98817;-80
2022/04/19 03:59:28;;;;;;;10.60;4.00;;;;;;;3.98;58.01;100215.74;3500080;83;98512;-79
2022/04/19 04:04:34;;;;;;;8.80;4.03;;;;;;;3.98;58.38;100221.19;3480898;83;98797;-79
2022/04/19 04:09:35;;;;;;;9.88;3.80;;;;;;;3.99;58.55;100235.80;3475584;83;98472;-78
2022/04/19 04:14:36;;;;;;;10.13;4.10;;;;;;;3.96;59.41;100265.62;3485870;83;98344;-77
2022/04/19 04:19:38;;;;;;;13.73;5.00;;;;;;;3.90;60.07;100266.42;3485649;83;99392;-79
2022/04/19 04:24:38;;;;;;;11.43;3.83;;;;;;;3.86;59.93;100270.14;3481599;83;99009;-79
2022/04/19 04:29:39;;;;;;;11.80;4.07;;;;;;;3.87;60.11;100265.73;3486386;83;98651;-79
2022/04/19 04:34:40;;;;;;;9.65;3.85;;;;;;;3.88;60.22;100261.09;3494480;83;98954;-80
2022/04/19 04:39:42;;;;;;;10.97;3.73;;;;;;;3.91;60.43;100261.76;3492225;83;98405;-80
2022/04/19 04:44:42;;;;;;;11.47;4.03;;;;;;;3.94;60.43;100258.38;3483014;83;98789;-79
2022/04/19 04:49:43;;;;;;;9.07;3.30;;;;;;;3.99;60.87;100256.22;3490558;83;98828;-80
2022/04/19 04:54:44;;;;;;;8.60;3.47;;;;;;;4.05;61.09;100257.59;3482738;83;98697;-79
2022/04/19 04:59:48;;;;;;;9.93;3.80;;;;;;;4.14;61.32;100252.07;3498951;82;98550;-80
2022/04/19 05:04:48;;;;;;;9.10;3.50;;;;;;;4.25;61.36;100249.91;3481624;83;98614;-80
2022/04/19 05:09:49;;;;;;;8.20;3.53;;;;;;;4.30;61.44;100241.52;3458457;83;98255;-80
2022/04/19 05:14:51;;;;;;;11.17;4.50;;;;;;;4.39;61.67;100240.05;3457061;84;98546;-79
2022/04/19 05:19:55;;;;;;;8.27;3.70;;;;;;;4.43;62.04;100243.10;3462120;84;98596;-80
2022/04/19 05:24:55;;;;;;;8.70;3.62;;;;;;;4.52;62.20;100238.34;3454599;84;98570;-80
2022/04/19 05:29:56;;;;;;;13.70;5.57;;;;;;;4.58;62.49;100233.47;3460993;84;98540;-80
2022/04/19 05:34:57;;;;;;;10.67;4.20;;;;;;;4.67;62.47;100224.03;3456042;84;99095;-80
2022/04/19 05:39:58;;;;;;;8.93;4.17;;;;;;;4.79;62.43;100220.48;3470034;84;34803;-80
2022/04/19 05:44:59;;;;;;;10.37;4.37;;;;;;;4.92;62.46;100220.70;3456915;83;98409;-80
2022/04/19 05:50:00;;;;;;;14.57;5.77;;;;;;;5.01;62.39;100223.51;3440780;83;97920;-80
2022/04/19 05:55:01;;;;;;;10.18;3.98;;;;;;;5.18;62.60;100223.23;3452836;83;98704;-80
2022/04/19 06:00:04;;;;;;;9.33;4.13;;;;;;;5.40;62.62;100216.46;3461426;83;98629;-79
2022/04/19 06:05:07;;;;;;;11.10;4.67;;;;;;;5.54;62.30;100220.37;3461629;83;98690;-79
2022/04/19 06:10:09;;;;;;;8.90;3.73;;;;;;;5.64;62.71;100241.72;3469056;83;26954;-78
2022/04/19 06:15:11;;;;;;;9.87;4.03;;;;;;;5.66;62.57;100233.16;3554105;81;98660;-79
2022/04/19 06:20:12;;;;;;;7.90;3.30;;;;;;;5.75;62.73;100242.80;3554056;81;98493;-79
2022/04/19 06:25:13;;;;;;;11.37;3.80;;;;;;;5.94;62.88;100227.91;3533353;81;98977;-79
2022/04/19 06:30:14;;;;;;;13.27;4.47;;;;;;;6.20;62.94;100222.73;3550679;81;98601;-79
2022/04/19 06:35:15;;;;;;;8.50;3.30;;;;;;;6.40;63.77;100216.78;3547402;81;98554;-77
2022/04/19 06:40:16;;;;;;;8.63;3.50;;;;;;;6.61;63.41;100217.28;3557682;81;35114;-78
2022/04/19 06:45:18;;;;;;;12.13;3.80;;;;;;;6.76;63.66;100228.19;3545570;81;98597;-79
2022/04/19 06:50:18;;;;;;;8.93;3.50;;;;;;;6.89;63.24;100233.78;3544089;81;98823;-79
2022/04/19 06:55:20;;;;;;;8.53;3.60;;;;;;;6.87;62.73;100236.05;3498029;81;98510;-78
2022/04/19 07:00:21;;;;;;;9.53;3.77;;;;;;;6.93;63.53;100248.90;3548254;81;98518;-79
2022/04/19 07:05:22;;;;;;;8.97;3.70;;;;;;;7.14;63.56;100248.78;3543360;81;98479;-77
2022/04/19 07:10:23;;;;;;;8.37;3.57;;;;;;;7.28;62.89;100249.66;3558575;81;34809;-78
2022/04/19 07:15:24;;;;;;;7.23;3.80;;;;;;;7.29;63.34;100245.20;3581213;81;98557;-78
2022/04/19 07:31:04;;;;;;;8.68;3.62;;;;;;;7.68;62.94;100257.73;3512358;81;98488;-78
2022/04/19 07:36:06;;;;;;;8.63;3.83;;;;;;;7.89;63.25;100266.37;3525283;82;98659;-79
2022/04/19 07:41:07;;;;;;;9.55;4.15;;;;;;;8.24;63.33;100253.33;3514606;81;98410;-78
2022/04/19 07:46:10;;;;;;;9.43;4.77;;;;;;;8.63;62.46;100265.77;3511260;81;98673;-76
2022/04/19 07:51:13;;;;;;;10.53;4.20;;;;;;;9.21;63.15;100275.84;3525992;82;98377;-78
2022/04/19 07:56:14;;;;;;;9.80;4.40;;;;;;;9.58;61.05;100270.65;3516566;82;98749;-79
2022/04/19 08:01:15;;;;;;;10.20;4.23;;;;;;;9.64;59.53;100269.72;3517820;81;98468;-79
2022/04/19 08:06:16;;;;;;;9.40;3.73;;;;;;;9.77;59.85;100273.22;3473669;83;98853;-78
2022/04/19 08:11:18;;;;;;;8.60;3.67;;;;;;;10.13;59.90;100273.86;3482562;83;98646;-79
2022/04/19 08:16:18;;;;;;;10.27;4.47;;;;;;;10.31;58.89;100267.16;3467254;83;98950;-78
2022/04/19 08:21:20;;;;;;;12.07;5.23;;;;;;;10.40;58.86;100272.55;3474301;83;98835;-78
2022/04/19 08:26:21;;;;;;;9.63;4.43;;;;;;;10.64;58.13;100268.44;3478041;83;99144;-78
2022/04/19 08:31:22;;;;;;;13.33;4.67;;;;;;;10.67;58.26;100277.30;3488753;83;98759;-77
2022/04/19 08:36:23;;;;;;;9.83;4.50;;;;;;;10.51;56.60;100277.56;3464409;83;99047;-78
2022/04/19 08:41:24;;;;;;;11.63;4.93;;;;;;;10.31;56.43;100279.55;3477217;83;98775;-77
2022/04/19 08:46:26;;;;;;;13.97;4.40;;;;;;;10.10;56.71;100287.00;3453527;84;98975;-77
2022/04/19 08:51:32;;;;;;;13.13;4.97;;;;;;;10.15;56.60;100289.98;3482279;84;98900;-78
2022/04/19 09:01:52;;;;;;;10.18;4.75;;;;;;;10.82;56.63;100296.89;3476654;83;98972;-78
2022/04/19 09:06:56;;;;;;;14.33;5.90;;;;;;;10.93;55.74;100287.55;3474183;83;98977;-78
2022/04/19 09:12:12;;;;;;;9.70;5.50;;;;;;;11.32;55.59;100296.85;3470103;83;99024;-80
2022/04/19 09:17:13;;;;;;;11.60;5.70;;;;;;;11.74;53.64;100294.34;3458950;83;98873;-82
2022/04/19 09:22:19;;;;;;;11.63;5.67;;;;;;;12.12;51.58;100318.52;3534354;82;29407;-81
2022/04/19 09:27:31;;;;;;;;;;;;;;;12.23;51.76;100309.68;3522468;81;99137;-81
2022/04/19 09:32:32;;;;;;;10.70;5.65;;;;;;;12.28;50.86;100336.89;3536921;82;84904;-80
2022/04/19 09:37:34;;;;;;;12.43;6.67;;;;;;;12.04;51.36;100337.59;3526083;82;99194;-81
2022/04/19 09:42:37;;;;;;;12.90;7.37;;;;;;;11.94;51.19;100342.47;3534920;82;99339;-80
2022/04/19 09:47:52;;;;;;;11.73;5.67;;;;;;;11.91;50.77;100356.25;3523351;82;99465;-81
2022/04/19 09:52:53;;;;;;;10.70;5.85;;;;;;;11.28;50.75;100366.28;3535350;81;99290;-79
2022/04/19 09:57:55;;;;;;;10.03;4.80;;;;;;;11.47;52.12;100369.37;3519465;82;99038;-81
2022/04/19 10:08:23;;;;;;;5.83;2.90;;;;;;;12.57;49.72;100390.17;3528740;82;98760;-81
2022/04/19 10:13:25;;;;;;;5.12;2.27;;;;;;;12.87;47.93;100390.03;3528560;82;98809;-81
2022/04/19 10:18:26;;;;;;;7.63;3.00;;;;;;;13.07;45.89;100397.38;3605921;80;98869;-81
2022/04/19 10:23:40;;;;;;;5.43;2.87;;;;;;;14.00;45.77;100402.59;3588012;80;98760;-82
2022/04/19 10:28:42;;;;;;;6.42;2.90;;;;;;;14.33;45.25;100388.86;3594529;80;98807;-81
2022/04/19 10:33:48;;;;;;;6.37;3.10;;;;;;;15.24;44.13;100381.30;3600860;80;98623;-81
2022/04/19 10:39:17;;;;;;;5.95;3.25;;;;;;;15.64;43.29;100386.13;3603262;80;98681;-82
2022/04/19 10:44:34;;;;;;;8.10;4.03;;;;;;;16.13;43.31;100386.34;3614903;79;101248;-84
2022/04/19 10:49:59;;;;;;;6.70;3.80;;;;;;;15.63;39.19;100390.88;3578390;80;99031;-81
2022/04/19 10:55:11;;;;;;;7.28;3.92;;;;;;;15.68;41.61;100389.63;3593193;80;99304;-82
2022/04/19 11:00:21;;;;;;;8.03;4.33;;;;;;;15.38;40.81;100386.15;3605509;80;98892;-82
2022/04/19 11:05:46;;;;;;;6.37;3.58;;;;;;;15.48;40.90;100388.66;3600474;80;99139;-80
2022/04/19 11:10:49;;;;;;;6.70;3.25;;;;;;;15.30;41.43;100383.23;3629738;80;31696;-80
2022/04/19 11:16:08;;;;;;;6.87;3.58;;;;;;;14.99;40.28;100393.20;3579344;80;98462;-82
2022/04/19 11:21:12;;;;;;;6.00;3.08;;;;;;;14.34;40.41;100403.66;3555265;81;98735;-83
2022/04/19 11:26:33;;;;;;;6.95;3.10;;;;;;;14.13;40.75;100401.56;3544370;81;98752;-81
2022/04/19 11:31:41;;;;;;;7.28;3.15;;;;;;;14.29;39.20;100393.00;3540759;81;98917;-83
2022/04/19 11:36:44;;;;;;;9.68;3.00;;;;;;;13.67;39.39;100399.50;3535664;81;98977;-82
2022/04/19 11:47:08;;;;;;;7.10;3.53;;;;;;;13.57;40.79;100408.02;3546154;81;99045;-82
2022/04/19 11:52:12;;;;;;;6.35;3.52;;;;;;;13.40;39.88;100403.91;3519642;82;31653;-85
2022/04/19 11:57:13;;;;;;;7.08;3.85;;;;;;;12.93;39.81;100414.70;3518025;82;98958;-81
2022/04/19 12:02:18;;;;;;;7.90;3.03;;;;;;;12.66;39.08;100416.83;3528638;82;99030;-81
2022/04/19 12:07:20;;;;;;;6.58;3.42;;;;;;;12.45;40.09;100418.95;3517208;82;98995;-81
2022/04/19 12:12:22;;;;;;;6.80;3.50;;;;;;;12.31;40.18;100416.13;3532884;82;98825;-80
2022/04/19 12:17:23;;;;;;;7.12;3.40;;;;;;;12.63;40.91;100424.50;3519897;80;98931;-80
2022/04/19 12:22:24;;;;;;;6.83;3.37;;;;;;;12.25;39.67;100425.96;3486996;83;26725;-81
2022/04/19 12:27:35;;;;;;;5.40;2.77;;;;;;;12.42;40.25;100418.94;3474975;83;98970;-80
2022/04/19 12:32:55;;;;;;;3.58;2.02;;;;;;;12.48;41.15;100422.30;3481394;83;98624;-80
2022/04/19 12:38:16;;;;;;;4.22;2.22;;;;;;;12.51;41.88;100420.14;3476997;83;98930;-79
2022/04/19 12:43:18;;;;;;;6.12;2.62;;;;;;;12.48;41.71;100408.49;3480317;83;98878;-82
2022/04/19 12:48:21;;;;;;;4.62;2.47;;;;;;;12.76;41.23;100405.80;3466620;83;98953;-80
2022/04/19 12:53:24;;;;;;;5.15;2.80;;;;;;;12.95;38.33;100410.16;3486231;83;98889;-81
2022/04/19 12:58:25;;;;;;;6.15;2.85;;;;;;;12.85;40.43;100403.45;3472166;83;98641;-82
2022/04/19 13:03:26;;;;;;;5.83;2.67;;;;;;;13.19;38.62;100404.69;3486735;83;99404;-82
2022/04/19 13:13:51;;;;;;;5.35;3.02;;;;;;;13.69;39.89;100403.45;3477877;83;99047;-81
2022/04/19 13:18:52;;;;;;;5.57;3.20;;;;;;;14.13;38.52;100407.89;3479660;83;98992;-82
2022/04/19 13:23:53;;;;;;;9.20;3.70;;;;;;;14.00;37.47;100409.50;3482047;83;99180;-82
2022/04/19 13:28:54;;;;;;;8.07;3.87;;;;;;;14.34;39.92;100402.27;3483046;83;98879;-81
2022/04/19 13:33:56;;;;;;;5.90;3.00;;;;;;;14.46;39.10;100405.20;3484874;83;28841;-82
2022/04/19 13:38:57;;;;;;;6.30;2.92;;;;;;;14.28;37.70;100408.04;3477369;83;98740;-83
2022/04/19 13:43:58;;;;;;;11.33;4.03;;;;;;;13.97;38.30;100406.17;3490271;83;99089;-81
2022/04/19 13:48:59;;;;;;;7.17;3.53;;;;;;;14.03;37.46;100401.80;3470296;83;99114;-82
2022/04/19 13:54:02;;;;;;;5.90;3.70;;;;;;;14.12;37.20;100392.45;3488308;83;98905;-80
2022/04/19 13:59:07;;;;;;;6.10;3.92;;;;;;;14.18;38.16;100404.69;3488052;83;99172;-81
2022/04/19 14:04:08;;;;;;;7.87;5.17;;;;;;;14.03;38.44;100400.41;3482568;83;98942;-81
2022/04/19 14:09:11;;;;;;;5.83;3.50;;;;;;;14.10;39.05;100412.83;3489697;83;97912;-83
2022/04/19 14:14:14;;;;;;;4.67;3.07;;;;;;;13.69;37.45;100418.66;3471555;83;99093;-82
2022/04/19 14:19:15;;;;;;;4.65;3.08;;;;;;;13.52;37.38;100419.48;3467670;83;98883;-83
2022/04/19 14:24:16;;;;;;;6.80;3.17;;;;;;;13.44;38.36;100412.97;3465398;83;98896;-83
2022/04/19 14:34:37;;;;;;;6.87;3.85;;;;;;;13.53;38.44;100421.05;3456198;83;98879;-81
2022/04/19 14:39:38;;;;;;;6.20;3.70;;;;;;;13.43;38.28;100426.02;3484100;83;98795;-82
2022/04/19 14:44:39;;;;;;;5.57;3.53;;;;;;;13.13;38.94;100429.75;3476168;83;99096;-82
2022/04/19 14:49:41;;;;;;;6.05;3.58;;;;;;;13.15;38.27;100427.98;3481159;83;98799;-83
2022/04/19 14:54:43;;;;;;;5.33;3.47;;;;;;;12.93;38.11;100430.50;3466705;83;98977;-82
2022/04/19 14:59:47;;;;;;;6.00;3.30;;;;;;;12.81;38.67;100425.35;3478057;83;98920;-82
2022/04/19 15:04:48;;;;;;;7.75;4.15;;;;;;;12.73;38.06;100429.27;3472874;83;98869;-84
2022/04/19 15:09:49;;;;;;;8.43;3.77;;;;;;;12.52;38.96;100434.72;3467344;83;100135;-83
2022/04/19 15:14:50;;;;;;;6.70;3.60;;;;;;;12.44;39.41;100442.19;3568673;80;98781;-83
2022/04/19 15:19:51;;;;;;;6.63;3.30;;;;;;;12.44;39.90;100440.03;3547053;81;99955;-82
2022/04/19 15:24:53;;;;;;;7.80;4.43;;;;;;;12.36;40.29;100443.35;3559897;80;26497;-81
2022/04/19 15:29:54;;;;;;;7.20;4.00;;;;;;;12.41;40.67;100446.31;3556620;81;98762;-82
2022/04/19 15:34:55;;;;;;;6.43;3.30;;;;;;;12.39;41.08;100439.03;3563649;81;98683;-82
2022/04/19 15:39:56;;;;;;;6.00;3.40;;;;;;;12.17;41.09;100438.16;3549597;80;98802;-81
2022/04/19 15:44:57;;;;;;;6.03;2.87;;;;;;;12.16;40.78;100438.54;3553844;81;98902;-85
2022/04/19 15:49:58;;;;;;;5.30;3.20;;;;;;;12.08;42.24;100435.53;3547049;81;99254;-82
2022/04/19 15:54:59;;;;;;;5.83;2.83;;;;;;;11.98;40.38;100444.53;3556314;81;34907;-82
2022/04/19 16:00:00;;;;;;;6.47;3.35;;;;;;;11.99;41.06;100439.23;3519630;81;98936;-82
2022/04/19 16:05:01;;;;;;;4.80;2.60;;;;;;;11.90;40.69;100433.27;3559417;81;98730;-82
2022/04/19 16:10:03;;;;;;;7.53;3.67;;;;;;;11.91;41.98;100437.03;3550073;81;98790;-81
2022/04/19 16:15:05;;;;;;;7.50;3.30;;;;;;;11.87;41.49;100436.20;3567079;81;98761;-81
2022/04/19 16:25:28;;;;;;;5.37;2.77;;;;;;;11.49;41.91;100444.98;3578701;80;98747;-81
2022/04/19 16:30:30;;;;;;;7.90;3.92;;;;;;;11.42;42.54;100448.27;3572689;81;98586;-82
2022/04/19 16:35:36;;;;;;;6.75;3.72;;;;;;;11.23;41.93;100456.78;3580773;80;98702;-84
2022/04/19 16:40:34;;;;;;;7.37;3.47;;;;;;;11.22;43.30;100472.50;3574627;80;98918;-83
2022/04/19 16:45:40;;;;;;;8.10;4.37;;;;;;;11.03;43.05;100465.84;3575814;80;98877;-82
2022/04/19 16:50:40;;;;;;;6.03;3.15;;;;;;;10.83;42.80;100468.58;3569011;80;99331;-82
2022/04/19 16:55:42;;;;;;;12.27;3.47;;;;;;;10.70;43.57;100467.27;3580054;81;99195;-83
2022/04/19 17:00:43;;;;;;;9.93;3.50;;;;;;;10.61;43.89;100457.13;3570721;81;98675;-81
2022/04/19 17:05:45;;;;;;;9.37;4.13;;;;;;;10.49;44.02;100461.52;3582379;81;98700;-82
2022/04/19 17:10:46;;;;;;;9.17;4.20;;;;;;;10.45;44.54;100464.00;3576503;80;98637;-83
2022/04/19 17:15:47;;;;;;;6.53;3.87;;;;;;;10.34;44.77;100454.83;3582938;80;98762;-81
2022/04/19 17:20:48;;;;;;;9.77;4.27;;;;;;;10.29;45.08;100461.45;3590260;80;98876;-82
2022/04/19 17:25:49;;;;;;;10.97;4.63;;;;;;;10.15;45.53;100466.77;3593346;80;99287;-81
2022/04/19 17:30:53;;;;;;;7.67;4.07;;;;;;;10.12;46.20;100470.27;3596505;80;98967;-82
2022/04/19 17:35:53;;;;;;;9.38;4.35;;;;;;;10.03;46.08;100475.81;3598231;80;98475;-81
2022/04/19 17:40:54;;;;;;;8.53;4.40;;;;;;;9.95;46.69;100474.92;3568591;80;98745;-82
2022/04/19 17:45:55;;;;;;;10.53;4.70;;;;;;;9.88;46.79;100482.27;3596833;80;98448;-82
2022/04/19 17:56:34;;;;;;;9.53;4.92;;;;;;;9.69;47.66;100480.42;3568660;80;98572;-82
2022/04/19 18:01:37;;;;;;;9.50;4.87;;;;;;;9.57;47.65;100484.75;3586908;80;98522;-82
2022/04/19 18:06:40;;;;;;;12.93;5.42;;;;;;;9.40;48.25;100492.69;3600308;80;32274;-82
2022/04/19 18:11:41;;;;;;;13.03;6.20;;;;;;;9.24;49.63;100493.40;3590227;80;98688;-82
2022/04/19 18:16:42;;;;;;;13.87;7.70;;;;;;;9.08;50.06;100496.84;3565770;80;98483;-82
2022/04/19 18:27:03;;;;;;;19.50;8.58;;;;;;;8.74;51.59;100512.86;3550194;81;98612;-82
2022/04/19 18:32:05;;;;;;;22.17;10.72;;;;;;;8.53;52.33;100517.92;3554580;81;99089;-81
2022/04/19 18:37:06;;;;;;;21.25;12.63;;;;;;;8.39;52.97;100516.27;3569783;81;29815;-82
2022/04/19 18:42:07;;;;;;;28.23;13.90;;;;;;;8.29;53.91;100520.95;3563073;80;98930;-82
2022/04/19 18:47:11;;;;;;;21.63;11.17;;;;;;;8.12;53.71;100521.33;3568549;79;98632;-82
2022/04/19 18:52:12;;;;;;;23.87;11.15;;;;;;;7.90;53.69;100523.37;3561797;80;98813;-81
2022/04/19 18:57:15;;;;;;;24.10;13.00;;;;;;;7.76;54.11;100529.31;3564618;81;98880;-81
2022/04/19 19:02:16;;;;;;;23.62;12.47;;;;;;;7.67;54.42;100539.65;3552101;81;98828;-81
2022/04/19 19:07:17;;;;;;;19.20;12.07;;;;;;;7.55;55.07;100546.59;3561310;81;30754;-82
2022/04/19 19:12:18;;;;;;;20.37;13.17;;;;;;;7.46;55.39;100550.64;3551566;81;98501;-82
2022/04/19 19:17:19;;;;;;;19.10;12.03;;;;;;;7.31;55.66;100548.11;3571711;80;98687;-82
2022/04/19 19:22:19;;;;;;;18.30;11.77;;;;;;;7.18;56.35;100562.23;3576768;81;98861;-81
2022/04/19 19:27:20;;;;;;;32.03;15.10;;;;;;;7.08;56.81;100567.64;3577012;80;98836;-81
2022/04/19 19:32:22;;;;;;;25.53;14.03;;;;;;;6.98;57.17;100561.30;3565853;81;98891;-81
2022/04/19 19:37:23;;;;;;;25.07;14.30;;;;;;;6.56;58.17;100553.30;3581341;80;98708;-81
2022/04/19 19:42:24;;;;;;;34.27;19.87;;;;;;;6.56;58.17;100553.30;3582377;80;98865;-80
2022/04/19 19:47:25;;;;;;;33.23;19.53;;;;;;;6.63;59.38;100574.00;3582365;80;98732;-81
2022/04/19 19:52:26;;;;;;;31.57;18.07;;;;;;;6.53;59.49;100566.84;3580051;80;98861;-81
2022/04/19 19:57:27;;;;;;;39.30;22.40;;;;;;;6.45;60.34;100575.43;3560791;80;98855;-81
2022/04/19 20:02:29;;;;;;;35.53;20.80;;;;;;;6.45;59.79;100580.90;3577583;80;98769;-81
2022/04/19 20:07:32;;;;;;;40.93;21.37;;;;;;;6.40;60.30;100570.20;3584892;80;98862;-81
2022/04/19 20:12:34;;;;;;;56.20;28.07;;;;;;;6.43;59.95;100578.28;3565311;80;98519;-80
2022/04/19 20:17:35;;;;;;;46.92;25.55;;;;;;;6.44;60.21;100578.50;3567368;80;99077;-82
2022/04/19 20:22:39;;;;;;;49.20;26.23;;;;;;;6.45;60.42;100580.09;3565586;80;98733;-80
2022/04/19 20:27:41;;;;;;;60.03;29.85;;;;;;;6.46;60.67;100578.94;3586219;80;98883;-81
2022/04/19 20:32:41;;;;;;;47.10;23.90;;;;;;;6.48;60.95;100574.72;3572983;80;98801;-81
2022/04/19 20:37:43;;;;;;;47.30;26.23;;;;;;;6.48;60.70;100580.19;3583618;81;98888;-81
2022/04/19 20:42:43;;;;;;;51.23;26.90;;;;;;;6.52;60.86;100581.66;3579046;81;98654;-81
2022/04/19 20:53:06;;;;;;;46.83;25.97;;;;;;;6.57;61.52;100578.12;3574558;81;98523;-81
2022/04/19 20:58:07;;;;;;;46.48;25.52;;;;;;;6.60;62.56;100571.95;3580990;81;98819;-81
2022/04/19 21:03:07;;;;;;;47.10;24.70;;;;;;;6.57;61.95;100576.75;3574288;81;99222;-81
2022/04/19 21:08:08;;;;;;;48.17;24.30;;;;;;;6.54;63.36;100578.03;3579762;81;99017;-81
2022/04/19 21:13:09;;;;;;;48.07;26.13;;;;;;;6.56;62.73;100577.09;3573120;80;98418;-81
2022/04/19 21:18:11;;;;;;;42.00;24.67;;;;;;;6.62;63.15;100576.52;3589893;80;98400;-81
2022/04/19 21:23:12;;;;;;;46.00;27.17;;;;;;;6.61;62.70;100587.20;3597354;80;98341;-81
2022/04/19 21:28:13;;;;;;;42.00;24.80;;;;;;;6.63;62.73;100586.87;3607412;80;99313;-81
2022/04/19 21:33:14;;;;;;;44.13;26.23;;;;;;;6.67;63.05;100591.88;3606940;80;98561;-81
2022/04/19 21:38:15;;;;;;;44.07;27.20;;;;;;;6.70;64.06;100604.88;3585092;80;98790;-81
2022/04/19 21:43:16;;;;;;;33.93;20.13;;;;;;;6.73;63.98;100606.89;3605209;80;98553;-81
2022/04/19 21:48:17;;;;;;;37.37;21.73;;;;;;;6.72;63.93;100610.78;3616644;78;98451;-81
2022/04/19 21:53:18;;;;;;;33.02;19.70;;;;;;;6.60;64.50;100600.66;3599216;80;98575;-81
2022/04/19 21:58:19;;;;;;;27.00;14.40;;;;;;;6.60;64.50;100600.66;3607273;80;98844;-81
2022/04/19 22:03:20;;;;;;;24.57;14.73;;;;;;;6.71;63.96;100615.44;3596408;80;98839;-82
2022/04/19 22:08:22;;;;;;;21.87;13.63;;;;;;;6.76;64.36;100615.79;3608619;80;98901;-82
2022/04/19 22:13:23;;;;;;;23.27;13.80;;;;;;;6.76;64.45;100620.67;3607942;80;98831;-82
2022/04/19 22:18:27;;;;;;;18.80;11.00;;;;;;;6.78;64.11;100613.48;3604852;80;26471;-82
2022/04/19 22:23:28;;;;;;;15.50;7.13;;;;;;;6.80;64.58;100618.84;3609283;80;98654;-81
2022/04/19 22:28:29;;;;;;;16.82;9.38;;;;;;;6.86;64.40;100611.17;3604452;80;99065;-82
2022/04/19 22:33:30;;;;;;;14.80;8.60;;;;;;;6.93;64.12;100613.54;3597468;80;98667;-82
2022/04/19 22:38:31;;;;;;;16.90;9.87;;;;;;;6.93;65.55;100608.06;3605609;80;98700;-82
2022/04/19 22:43:34;;;;;;;14.03;8.08;;;;;;;6.94;65.78;100600.66;3598566;80;98688;-80
2022/04/19 22:48:35;;;;;;;14.85;7.33;;;;;;;6.94;67.55;100608.31;3606733;80;32553;-80
2022/04/19 22:53:36;;;;;;;15.13;7.30;;;;;;;6.86;68.87;100605.14;3598549;80;98360;-80
2022/04/19 22:58:37;;;;;;;15.57;8.87;;;;;;;6.85;67.89;100599.45;3604810;80;99068;-80
2022/04/19 23:03:38;;;;;;;17.47;9.43;;;;;;;6.88;67.47;100596.59;3598647;80;98740;-80
2022/04/19 23:08:39;;;;;;;17.83;10.23;;;;;;;6.90;67.56;100588.81;3599674;80;98695;-80
2022/04/19 23:13:40;;;;;;;16.87;10.37;;;;;;;6.90;67.21;100587.45;3595904;80;98869;-80
2022/04/19 23:18:42;;;;;;;18.73;10.80;;;;;;;6.89;67.21;100585.30;3605777;80;26140;-80
2022/04/19 23:23:43;;;;;;;17.25;10.30;;;;;;;6.89;66.92;100592.14;3588318;80;99047;-80
2022/04/19 23:28:44;;;;;;;19.30;11.67;;;;;;;6.92;67.04;100585.96;3606810;80;98735;-80
2022/04/19 23:33:45;;;;;;;20.07;11.97;;;;;;;6.94;66.87;100575.48;3592506;80;99142;-80
2022/04/19 23:38:45;;;;;;;20.73;11.37;;;;;;;6.93;66.90;100569.77;3593062;80;98904;-81
2022/04/19 23:48:56;;;;;;;20.20;11.23;;;;;;;6.88;67.81;100567.87;3929752;73;25737;-82
2022/04/19 23:53:57;;;;;;;20.97;12.10;;;;;;;6.83;68.41;100574.95;3738018;75;98810;-82
2022/04/19 23:58:58;;;;;;;19.17;10.98;;;;;;;6.85;68.12;100561.71;3695838;78;98735;-82
